McElhattan, Pennsylvania
Current Conditions -  °F | °C
As of 6:54 PM on Wednesday 28 Jan 2015 (Local Time) from KIPT Reporting Station
Clear Clear  
Wind Chill: 22°   Ceiling: Unl
Heat Index: 27°   Visibility: 10mi
Dew Point: -3°   Wind: 5mph
Humidity: 27%   Direction: 310°NW
Pressure: 30.28"   Gusts: NA
Location:  41.16°N, 77.36°W
Report Text: KIPT 282354Z 31004KT 10SM CLR M03/M19 A3028 RMK AO2 SLP261 T10281194 10011 21028 51023
Loading
Personal Weather Stations






























Interactive Weather Map New forecast layout! Learn more

10-Day Weather Forecast

Advertisements
Track Severe Weather on mobile